sensor_id;sensor_type;location;lat;lon;timestamp;temperature;humidity
13470;DHT22;6807;48.682;9.032;2022-09-01T00:02:05;12.50;99.90
13470;DHT22;6807;48.682;9.032;2022-09-01T00:04:36;12.50;99.90
13470;DHT22;6807;48.682;9.032;2022-09-01T00:07:06;12.50;99.90
13470;DHT22;6807;48.682;9.032;2022-09-01T00:09:33;12.50;99.90
13470;DHT22;6807;48.682;9.032;2022-09-01T00:12:02;12.40;99.90
13470;DHT22;6807;48.682;9.032;2022-09-01T00:14:32;12.60;99.90
13470;DHT22;6807;48.682;9.032;2022-09-01T00:17:04;12.60;99.90
13470;DHT22;6807;48.682;9.032;2022-09-01T00:19:31;12.70;99.90
13470;DHT22;6807;48.682;9.032;2022-09-01T00:22:01;12.80;99.90
13470;DHT22;6807;48.682;9.032;2022-09-01T00:24:30;12.80;99.90
13470;DHT22;6807;48.682;9.032;2022-09-01T00:26:57;12.90;99.90
13470;DHT22;6807;48.682;9.032;2022-09-01T00:29:25;12.80;99.90
13470;DHT22;6807;48.682;9.032;2022-09-01T00:31:53;12.80;99.90
13470;DHT22;6807;48.682;9.032;2022-09-01T00:34:20;13.00;99.90
13470;DHT22;6807;48.682;9.032;2022-09-01T00:36:47;13.00;99.90
13470;DHT22;6807;48.682;9.032;2022-09-01T00:39:15;13.10;99.90
13470;DHT22;6807;48.682;9.032;2022-09-01T00:41:44;13.10;99.90
13470;DHT22;6807;48.682;9.032;2022-09-01T00:44:15;13.50;99.90
13470;DHT22;6807;48.682;9.032;2022-09-01T00:46:46;13.30;99.90
13470;DHT22;6807;48.682;9.032;2022-09-01T00:49:16;13.20;99.90
13470;DHT22;6807;48.682;9.032;2022-09-01T00:51:48;13.10;99.90
13470;DHT22;6807;48.682;9.032;2022-09-01T00:54:21;13.20;99.90
13470;DHT22;6807;48.682;9.032;2022-09-01T00:56:50;13.10;99.90
13470;DHT22;6807;48.682;9.032;2022-09-01T00:59:18;13.20;99.90
13470;DHT22;6807;48.682;9.032;2022-09-01T01:01:46;13.00;99.90
13470;DHT22;6807;48.682;9.032;2022-09-01T01:04:14;13.00;99.90
13470;DHT22;6807;48.682;9.032;2022-09-01T01:06:42;12.90;99.90
13470;DHT22;6807;48.682;9.032;2022-09-01T01:09:15;13.10;99.90
13470;DHT22;6807;48.682;9.032;2022-09-01T01:11:42;13.10;99.90
13470;DHT22;6807;48.682;9.032;2022-09-01T01:14:15;14.10;99.90
13470;DHT22;6807;48.682;9.032;2022-09-01T01:16:47;13.30;99.90
13470;DHT22;6807;48.682;9.032;2022-09-01T01:19:19;13.30;99.90
13470;DHT22;6807;48.682;9.032;2022-09-01T01:22:05;13.30;99.90
13470;DHT22;6807;48.682;9.032;2022-09-01T01:24:52;13.30;99.90
13470;DHT22;6807;48.682;9.032;2022-09-01T01:27:21;13.30;99.90
13470;DHT22;6807;48.682;9.032;2022-09-01T01:29:48;13.20;99.90
13470;DHT22;6807;48.682;9.032;2022-09-01T01:34:45;13.20;99.90
13470;DHT22;6807;48.682;9.032;2022-09-01T01:37:12;13.20;99.90
13470;DHT22;6807;48.682;9.032;2022-09-01T01:39:40;13.30;99.90
13470;DHT22;6807;48.682;9.032;2022-09-01T01:42:11;12.60;99.90
13470;DHT22;6807;48.682;9.032;2022-09-01T01:47:11;13.10;99.90
13470;DHT22;6807;48.682;9.032;2022-09-01T01:49:39;13.10;99.90
13470;DHT22;6807;48.682;9.032;2022-09-01T01:52:10;13.30;99.90
13470;DHT22;6807;48.682;9.032;2022-09-01T01:54:41;13.20;99.90
13470;DHT22;6807;48.682;9.032;2022-09-01T01:57:08;13.10;99.90
13470;DHT22;6807;48.682;9.032;2022-09-01T01:59:37;13.10;99.90
13470;DHT22;6807;48.682;9.032;2022-09-01T02:04:35;13.00;99.90
13470;DHT22;6807;48.682;9.032;2022-09-01T02:07:07;13.10;99.90
13470;DHT22;6807;48.682;9.032;2022-09-01T02:09:36;12.70;99.90
13470;DHT22;6807;48.682;9.032;2022-09-01T02:12:04;12.90;99.90
13470;DHT22;6807;48.682;9.032;2022-09-01T02:14:32;12.50;99.90
13470;DHT22;6807;48.682;9.032;2022-09-01T02:17:00;12.90;99.90
13470;DHT22;6807;48.682;9.032;2022-09-01T02:26:57;13.00;99.90
13470;DHT22;6807;48.682;9.032;2022-09-01T02:34:24;12.80;99.90
13470;DHT22;6807;48.682;9.032;2022-09-01T02:46:47;12.80;99.90
13470;DHT22;6807;48.682;9.032;2022-09-01T03:04:08;12.70;99.90
13470;DHT22;6807;48.682;9.032;2022-09-01T03:06:38;12.60;99.90
13470;DHT22;6807;48.682;9.032;2022-09-01T04:06:14;11.50;99.90
13470;DHT22;6807;48.682;9.032;2022-09-01T05:09:31;13.00;99.90
13470;DHT22;6807;48.682;9.032;2022-09-01T05:12:02;13.00;99.90
13470;DHT22;6807;48.682;9.032;2022-09-01T06:06:47;15.20;99.90
13470;DHT22;6807;48.682;9.032;2022-09-01T06:24:03;16.00;99.90
13470;DHT22;6807;48.682;9.032;2022-09-01T06:26:34;15.90;99.90
13470;DHT22;6807;48.682;9.032;2022-09-01T06:36:34;16.10;99.90
13470;DHT22;6807;48.682;9.032;2022-09-01T06:48:54;15.70;99.90
13470;DHT22;6807;48.682;9.032;2022-09-01T07:03:53;18.20;99.90
13470;DHT22;6807;48.682;9.032;2022-09-01T07:06:22;18.40;99.90
13470;DHT22;6807;48.682;9.032;2022-09-01T07:11:22;18.00;99.90
13470;DHT22;6807;48.682;9.032;2022-09-01T07:13:53;17.90;99.90
13470;DHT22;6807;48.682;9.032;2022-09-01T07:16:23;18.10;99.90
13470;DHT22;6807;48.682;9.032;2022-09-01T07:38:41;19.90;99.90
13470;DHT22;6807;48.682;9.032;2022-09-01T08:45:47;19.10;99.90
13470;DHT22;6807;48.682;9.032;2022-09-01T08:55:52;19.50;99.90
13470;DHT22;6807;48.682;9.032;2022-09-01T09:11:21;19.60;99.90
13470;DHT22;6807;48.682;9.032;2022-09-01T09:16:32;19.10;99.90
13470;DHT22;6807;48.682;9.032;2022-09-01T09:21:33;19.20;99.90
13470;DHT22;6807;48.682;9.032;2022-09-01T09:24:08;19.40;99.90
13470;DHT22;6807;48.682;9.032;2022-09-01T09:36:33;22.70;99.90
13470;DHT22;6807;48.682;9.032;2022-09-01T09:39:08;21.70;99.90
13470;DHT22;6807;48.682;9.032;2022-09-01T09:41:38;24.00;99.90
13470;DHT22;6807;48.682;9.032;2022-09-01T09:49:12;23.20;99.90
13470;DHT22;6807;48.682;9.032;2022-09-01T09:51:50;23.00;99.90
13470;DHT22;6807;48.682;9.032;2022-09-01T10:12:04;23.40;99.90
13470;DHT22;6807;48.682;9.032;2022-09-01T10:42:53;22.80;99.90
13470;DHT22;6807;48.682;9.032;2022-09-01T10:53:37;24.80;99.90
13470;DHT22;6807;48.682;9.032;2022-09-01T10:58:52;24.20;99.90
13470;DHT22;6807;48.682;9.032;2022-09-01T11:33:51;27.50;99.90
13470;DHT22;6807;48.682;9.032;2022-09-01T11:36:28;27.50;99.90
13470;DHT22;6807;48.682;9.032;2022-09-01T11:39:03;27.30;99.90
13470;DHT22;6807;48.682;9.032;2022-09-01T11:41:42;25.00;99.90
13470;DHT22;6807;48.682;9.032;2022-09-01T11:44:17;25.80;99.90
13470;DHT22;6807;48.682;9.032;2022-09-01T11:46:46;26.80;99.90
13470;DHT22;6807;48.682;9.032;2022-09-01T11:49:26;27.90;99.90
13470;DHT22;6807;48.682;9.032;2022-09-01T11:51:55;28.00;99.90
13470;DHT22;6807;48.682;9.032;2022-09-01T11:54:38;26.60;99.90
13470;DHT22;6807;48.682;9.032;2022-09-01T11:57:28;28.10;99.90
13470;DHT22;6807;48.682;9.032;2022-09-01T12:00:24;26.50;99.90
13470;DHT22;6807;48.682;9.032;2022-09-01T12:02:53;26.80;99.90
13470;DHT22;6807;48.682;9.032;2022-09-01T12:05:51;25.40;99.90
13470;DHT22;6807;48.682;9.032;2022-09-01T12:08:26;25.10;99.90
13470;DHT22;6807;48.682;9.032;2022-09-01T12:14:19;25.00;99.90
13470;DHT22;6807;48.682;9.032;2022-09-01T12:16:55;27.10;99.90
13470;DHT22;6807;48.682;9.032;2022-09-01T12:19:31;27.90;99.90
13470;DHT22;6807;48.682;9.032;2022-09-01T12:22:01;27.70;99.90
13470;DHT22;6807;48.682;9.032;2022-09-01T12:24:32;26.10;99.90
13470;DHT22;6807;48.682;9.032;2022-09-01T12:27:00;24.90;99.90
13470;DHT22;6807;48.682;9.032;2022-09-01T12:29:39;25.10;99.90
13470;DHT22;6807;48.682;9.032;2022-09-01T12:32:06;26.40;99.90
13470;DHT22;6807;48.682;9.032;2022-09-01T12:34:43;26.70;99.90
13470;DHT22;6807;48.682;9.032;2022-09-01T12:37:19;26.60;99.90
13470;DHT22;6807;48.682;9.032;2022-09-01T12:39:50;27.40;99.90
13470;DHT22;6807;48.682;9.032;2022-09-01T12:42:25;26.40;99.90
13470;DHT22;6807;48.682;9.032;2022-09-01T12:44:57;26.40;99.90
13470;DHT22;6807;48.682;9.032;2022-09-01T12:47:47;28.20;99.90
13470;DHT22;6807;48.682;9.032;2022-09-01T12:50:35;28.10;99.90
13470;DHT22;6807;48.682;9.032;2022-09-01T12:53:16;29.10;99.90
13470;DHT22;6807;48.682;9.032;2022-09-01T12:56:01;29.00;99.90
13470;DHT22;6807;48.682;9.032;2022-09-01T12:58:28;29.00;99.90
13470;DHT22;6807;48.682;9.032;2022-09-01T13:01:02;26.70;99.90
13470;DHT22;6807;48.682;9.032;2022-09-01T13:03:31;27.20;99.90
13470;DHT22;6807;48.682;9.032;2022-09-01T13:06:00;26.50;99.90
13470;DHT22;6807;48.682;9.032;2022-09-01T13:08:29;25.20;99.90
13470;DHT22;6807;48.682;9.032;2022-09-01T13:11:02;26.50;99.90
13470;DHT22;6807;48.682;9.032;2022-09-01T13:13:29;26.60;99.90
13470;DHT22;6807;48.682;9.032;2022-09-01T13:15:58;25.30;99.90
13470;DHT22;6807;48.682;9.032;2022-09-01T13:18:29;24.70;99.90
13470;DHT22;6807;48.682;9.032;2022-09-01T13:20:56;23.70;99.90
13470;DHT22;6807;48.682;9.032;2022-09-01T13:23:23;23.20;99.90
13470;DHT22;6807;48.682;9.032;2022-09-01T13:25:51;23.00;99.90
13470;DHT22;6807;48.682;9.032;2022-09-01T13:28:19;22.60;99.90
13470;DHT22;6807;48.682;9.032;2022-09-01T13:30:53;23.50;99.90
13470;DHT22;6807;48.682;9.032;2022-09-01T13:33:22;25.40;99.90
13470;DHT22;6807;48.682;9.032;2022-09-01T13:35:49;25.70;99.90
13470;DHT22;6807;48.682;9.032;2022-09-01T13:38:18;24.60;99.90
13470;DHT22;6807;48.682;9.032;2022-09-01T13:40:46;22.50;99.90
13470;DHT22;6807;48.682;9.032;2022-09-01T13:43:17;23.00;99.90
13470;DHT22;6807;48.682;9.032;2022-09-01T13:45:45;22.40;99.90
13470;DHT22;6807;48.682;9.032;2022-09-01T13:48:13;22.20;99.90
13470;DHT22;6807;48.682;9.032;2022-09-01T13:50:41;22.00;99.90
13470;DHT22;6807;48.682;9.032;2022-09-01T13:53:09;21.90;99.90
13470;DHT22;6807;48.682;9.032;2022-09-01T13:55:38;21.90;99.90
13470;DHT22;6807;48.682;9.032;2022-09-01T13:58:05;22.30;99.90
13470;DHT22;6807;48.682;9.032;2022-09-01T14:00:34;22.90;99.90
13470;DHT22;6807;48.682;9.032;2022-09-01T14:03:04;24.30;99.90
13470;DHT22;6807;48.682;9.032;2022-09-01T14:05:34;25.30;99.90
13470;DHT22;6807;48.682;9.032;2022-09-01T14:08:05;25.90;99.90
13470;DHT22;6807;48.682;9.032;2022-09-01T14:10:35;26.20;99.90
13470;DHT22;6807;48.682;9.032;2022-09-01T14:13:03;26.50;99.90
13470;DHT22;6807;48.682;9.032;2022-09-01T14:15:31;26.50;99.90
13470;DHT22;6807;48.682;9.032;2022-09-01T14:17:58;26.20;99.90
13470;DHT22;6807;48.682;9.032;2022-09-01T14:20:27;26.00;99.90
13470;DHT22;6807;48.682;9.032;2022-09-01T14:22:56;26.60;99.90
13470;DHT22;6807;48.682;9.032;2022-09-01T14:25:25;25.60;99.90
13470;DHT22;6807;48.682;9.032;2022-09-01T14:27:52;26.10;99.90
13470;DHT22;6807;48.682;9.032;2022-09-01T14:30:24;24.50;99.90
13470;DHT22;6807;48.682;9.032;2022-09-01T14:32:51;23.70;99.90
13470;DHT22;6807;48.682;9.032;2022-09-01T14:35:20;23.20;99.90
13470;DHT22;6807;48.682;9.032;2022-09-01T14:37:52;22.90;99.90
13470;DHT22;6807;48.682;9.032;2022-09-01T14:40:22;22.80;99.90
13470;DHT22;6807;48.682;9.032;2022-09-01T14:42:52;22.90;99.90
13470;DHT22;6807;48.682;9.032;2022-09-01T14:45:21;23.30;99.90
13470;DHT22;6807;48.682;9.032;2022-09-01T14:47:51;24.30;99.90
13470;DHT22;6807;48.682;9.032;2022-09-01T14:50:19;24.50;99.90
13470;DHT22;6807;48.682;9.032;2022-09-01T14:52:51;24.00;99.90
13470;DHT22;6807;48.682;9.032;2022-09-01T14:55:22;24.50;99.90
13470;DHT22;6807;48.682;9.032;2022-09-01T14:57:52;24.80;99.90
13470;DHT22;6807;48.682;9.032;2022-09-01T15:00:20;25.30;99.90
13470;DHT22;6807;48.682;9.032;2022-09-01T15:02:52;25.00;99.90
13470;DHT22;6807;48.682;9.032;2022-09-01T15:05:19;24.70;99.90
13470;DHT22;6807;48.682;9.032;2022-09-01T15:07:46;24.60;99.90
13470;DHT22;6807;48.682;9.032;2022-09-01T15:10:16;24.90;99.90
13470;DHT22;6807;48.682;9.032;2022-09-01T15:12:43;25.10;99.90
13470;DHT22;6807;48.682;9.032;2022-09-01T15:15:12;24.40;99.90
13470;DHT22;6807;48.682;9.032;2022-09-01T15:17:39;24.30;99.90
13470;DHT22;6807;48.682;9.032;2022-09-01T15:20:06;24.80;99.90
13470;DHT22;6807;48.682;9.032;2022-09-01T15:22:51;24.90;99.90
13470;DHT22;6807;48.682;9.032;2022-09-01T15:25:18;24.50;99.90
13470;DHT22;6807;48.682;9.032;2022-09-01T15:27:45;24.20;99.90
13470;DHT22;6807;48.682;9.032;2022-09-01T15:30:14;24.20;99.90
13470;DHT22;6807;48.682;9.032;2022-09-01T15:32:42;24.00;99.90
13470;DHT22;6807;48.682;9.032;2022-09-01T15:35:11;24.20;99.90
13470;DHT22;6807;48.682;9.032;2022-09-01T15:37:38;24.00;99.90
13470;DHT22;6807;48.682;9.032;2022-09-01T15:40:08;23.80;99.90
13470;DHT22;6807;48.682;9.032;2022-09-01T15:42:37;23.60;99.90
13470;DHT22;6807;48.682;9.032;2022-09-01T15:45:07;23.20;99.90
13470;DHT22;6807;48.682;9.032;2022-09-01T15:47:36;23.80;99.90
13470;DHT22;6807;48.682;9.032;2022-09-01T15:50:08;23.60;99.90
13470;DHT22;6807;48.682;9.032;2022-09-01T15:52:47;23.50;99.90
13470;DHT22;6807;48.682;9.032;2022-09-01T15:55:27;23.50;99.90
13470;DHT22;6807;48.682;9.032;2022-09-01T15:57:55;23.30;99.90
13470;DHT22;6807;48.682;9.032;2022-09-01T16:00:24;23.10;99.90
13470;DHT22;6807;48.682;9.032;2022-09-01T16:02:53;22.90;99.90
13470;DHT22;6807;48.682;9.032;2022-09-01T16:05:23;23.00;99.90
13470;DHT22;6807;48.682;9.032;2022-09-01T16:07:52;22.90;99.90
13470;DHT22;6807;48.682;9.032;2022-09-01T16:10:32;22.60;99.90
13470;DHT22;6807;48.682;9.032;2022-09-01T16:13:18;22.40;99.90
13470;DHT22;6807;48.682;9.032;2022-09-01T16:15:53;22.20;99.90
13470;DHT22;6807;48.682;9.032;2022-09-01T16:18:29;22.20;99.90
13470;DHT22;6807;48.682;9.032;2022-09-01T16:21:00;22.10;99.90
13470;DHT22;6807;48.682;9.032;2022-09-01T16:23:35;22.00;99.90
13470;DHT22;6807;48.682;9.032;2022-09-01T16:26:05;21.90;99.90
13470;DHT22;6807;48.682;9.032;2022-09-01T16:28:34;21.90;99.90
13470;DHT22;6807;48.682;9.032;2022-09-01T16:31:08;21.60;99.90
13470;DHT22;6807;48.682;9.032;2022-09-01T16:33:37;21.50;99.90
13470;DHT22;6807;48.682;9.032;2022-09-01T16:36:12;21.60;99.90
13470;DHT22;6807;48.682;9.032;2022-09-01T16:38:46;21.60;99.90
13470;DHT22;6807;48.682;9.032;2022-09-01T16:41:26;21.50;99.90
13470;DHT22;6807;48.682;9.032;2022-09-01T16:44:09;21.50;99.90
13470;DHT22;6807;48.682;9.032;2022-09-01T16:46:42;21.40;99.90
13470;DHT22;6807;48.682;9.032;2022-09-01T16:49:18;21.30;99.90
13470;DHT22;6807;48.682;9.032;2022-09-01T16:52:00;21.30;99.90
13470;DHT22;6807;48.682;9.032;2022-09-01T16:54:40;21.20;99.90
13470;DHT22;6807;48.682;9.032;2022-09-01T16:57:15;21.00;99.90
13470;DHT22;6807;48.682;9.032;2022-09-01T16:59:50;20.80;99.90
13470;DHT22;6807;48.682;9.032;2022-09-01T17:02:31;20.80;99.90
13470;DHT22;6807;48.682;9.032;2022-09-01T17:05:08;20.70;99.90
13470;DHT22;6807;48.682;9.032;2022-09-01T17:07:46;20.50;99.90
13470;DHT22;6807;48.682;9.032;2022-09-01T17:10:30;20.40;99.90
13470;DHT22;6807;48.682;9.032;2022-09-01T17:13:13;20.30;99.90
13470;DHT22;6807;48.682;9.032;2022-09-01T17:15:43;20.10;99.90
13470;DHT22;6807;48.682;9.032;2022-09-01T17:18:15;20.00;99.90
13470;DHT22;6807;48.682;9.032;2022-09-01T17:20:47;19.90;99.90
13470;DHT22;6807;48.682;9.032;2022-09-01T17:23:21;19.80;99.90
13470;DHT22;6807;48.682;9.032;2022-09-01T17:25:55;19.70;99.90
13470;DHT22;6807;48.682;9.032;2022-09-01T17:28:29;19.60;99.90
13470;DHT22;6807;48.682;9.032;2022-09-01T17:31:04;19.60;99.90
13470;DHT22;6807;48.682;9.032;2022-09-01T17:33:35;19.50;99.90
13470;DHT22;6807;48.682;9.032;2022-09-01T17:36:12;19.40;99.90
13470;DHT22;6807;48.682;9.032;2022-09-01T17:38:49;19.30;99.90
13470;DHT22;6807;48.682;9.032;2022-09-01T17:41:28;19.20;99.90
13470;DHT22;6807;48.682;9.032;2022-09-01T17:44:05;19.40;99.90
13470;DHT22;6807;48.682;9.032;2022-09-01T17:46:44;19.00;99.90
13470;DHT22;6807;48.682;9.032;2022-09-01T17:49:20;18.90;99.90
13470;DHT22;6807;48.682;9.032;2022-09-01T17:51:56;18.90;99.90
13470;DHT22;6807;48.682;9.032;2022-09-01T17:54:33;18.80;99.90
13470;DHT22;6807;48.682;9.032;2022-09-01T17:57:20;18.70;99.90
13470;DHT22;6807;48.682;9.032;2022-09-01T17:59:54;18.50;99.90
13470;DHT22;6807;48.682;9.032;2022-09-01T18:05:38;18.40;99.90
13470;DHT22;6807;48.682;9.032;2022-09-01T18:08:24;18.30;99.90
13470;DHT22;6807;48.682;9.032;2022-09-01T18:10:55;18.20;99.90
13470;DHT22;6807;48.682;9.032;2022-09-01T18:13:26;18.10;99.90
13470;DHT22;6807;48.682;9.032;2022-09-01T18:15:56;18.00;99.90
13470;DHT22;6807;48.682;9.032;2022-09-01T18:18:27;18.00;99.90
13470;DHT22;6807;48.682;9.032;2022-09-01T18:38:38;17.60;99.90
13470;DHT22;6807;48.682;9.032;2022-09-01T18:41:23;17.60;99.90
13470;DHT22;6807;48.682;9.032;2022-09-01T18:54:13;17.30;99.90
13470;DHT22;6807;48.682;9.032;2022-09-01T19:12:07;17.00;99.90
13470;DHT22;6807;48.682;9.032;2022-09-01T20:02:47;15.30;99.90
13470;DHT22;6807;48.682;9.032;2022-09-01T20:05:23;15.20;99.90
13470;DHT22;6807;48.682;9.032;2022-09-01T21:21:55;14.10;99.90
13470;DHT22;6807;48.682;9.032;2022-09-01T23:01:46;13.60;99.90
13470;DHT22;6807;48.682;9.032;2022-09-01T23:34:07;12.60;99.90
